Time;durP1;ratioP1;P1;durP2;ratioP2;P2;SDS_P1;SDS_P2;PMS_P1;PMS_P2;Temp;Humidity;BMP_temperature;BMP_pressure;BME280_temperature;BME280_humidity;BME280_pressure;Samples;Min_cycle;Max_cycle;Signal;HPM_P1;HPM_P2
2021/05/25 00:00:57;;;;;;;4.95;1.85;;;13.50;99.90;;;;;;1884605;75;21587;-77
2021/05/25 00:03:25;;;;;;;6.33;2.20;;;13.30;99.90;;;;;;1886341;75;21142;-78
2021/05/25 00:05:52;;;;;;;5.05;2.17;;;13.40;99.90;;;;;;1883592;75;21171;-77
2021/05/25 00:08:20;;;;;;;3.87;2.00;;;13.50;99.90;;;;;;1881948;75;21109;-76
2021/05/25 00:10:48;;;;;;;7.30;2.10;;;13.60;99.90;;;;;;1884557;75;21209;-78
2021/05/25 00:13:15;;;;;;;8.68;2.72;;;13.50;99.90;;;;;;1882416;75;21070;-78
2021/05/25 00:15:43;;;;;;;2.15;1.75;;;13.50;99.90;;;;;;1881009;75;21563;-77
2021/05/25 00:18:10;;;;;;;3.12;1.82;;;13.60;99.90;;;;;;1882976;75;21309;-78
2021/05/25 00:20:38;;;;;;;6.00;2.02;;;13.60;99.90;;;;;;1881314;75;21187;-78
2021/05/25 00:23:06;;;;;;;4.87;2.45;;;13.60;99.90;;;;;;1883170;75;21039;-77
2021/05/25 00:25:34;;;;;;;5.72;2.10;;;13.50;99.90;;;;;;1883974;75;21089;-77
2021/05/25 00:28:02;;;;;;;5.03;2.33;;;13.50;99.90;;;;;;1880911;75;21141;-78
2021/05/25 00:30:30;;;;;;;6.33;2.45;;;13.40;99.90;;;;;;1883904;75;21041;-77
2021/05/25 00:32:57;;;;;;;2.47;1.67;;;13.40;99.90;;;;;;1881779;75;21174;-75
2021/05/25 00:35:26;;;;;;;5.75;1.95;;;13.40;99.90;;;;;;1881216;75;21508;-77
2021/05/25 00:37:54;;;;;;;2.72;2.22;;;13.30;99.90;;;;;;1880795;75;21081;-75
2021/05/25 00:40:22;;;;;;;4.55;2.00;;;13.30;99.90;;;;;;1882883;75;21085;-78
2021/05/25 00:42:49;;;;;;;4.42;2.15;;;13.40;99.90;;;;;;1881951;75;21121;-77
2021/05/25 00:45:18;;;;;;;3.77;1.77;;;13.30;99.90;;;;;;1883216;75;21096;-75
2021/05/25 00:47:45;;;;;;;3.37;1.50;;;13.20;99.90;;;;;;1881773;75;21113;-77
2021/05/25 00:50:16;;;;;;;2.85;1.90;;;13.30;99.90;;;;;;1882408;75;21100;-76
2021/05/25 00:52:46;;;;;;;4.70;1.67;;;13.40;99.90;;;;;;1883693;75;21170;-76
2021/05/25 00:55:17;;;;;;;4.95;1.87;;;13.50;99.90;;;;;;1884975;75;21183;-77
2021/05/25 00:57:46;;;;;;;3.25;1.72;;;13.40;99.90;;;;;;1879829;75;21062;-76
2021/05/25 01:00:15;;;;;;;3.70;1.67;;;13.30;99.90;;;;;;1883527;75;21268;-77
2021/05/25 01:02:43;;;;;;;3.17;1.82;;;13.20;99.90;;;;;;1882219;75;21199;-76
2021/05/25 01:05:12;;;;;;;4.10;1.82;;;13.30;99.90;;;;;;1881599;75;21152;-77
2021/05/25 01:07:41;;;;;;;5.08;1.80;;;13.20;99.90;;;;;;1881908;75;21144;-76
2021/05/25 01:10:11;;;;;;;4.08;1.80;;;13.30;99.90;;;;;;1883132;75;21405;-75
2021/05/25 01:12:46;;;;;;;5.72;1.87;;;13.50;99.90;;;;;;1881602;75;21191;-76
2021/05/25 01:15:11;;;;;;;2.60;1.52;;;13.20;99.90;;;;;;1882377;75;21062;-77
2021/05/25 01:17:38;;;;;;;4.22;1.60;;;13.20;99.90;;;;;;1881011;75;21218;-75
2021/05/25 01:20:07;;;;;;;7.17;1.80;;;13.20;99.90;;;;;;1883125;75;21093;-76
2021/05/25 01:22:34;;;;;;;4.10;1.70;;;13.00;99.90;;;;;;1884674;75;21105;-75
2021/05/25 01:25:10;;;;;;;3.52;1.60;;;12.90;99.90;;;;;;1881423;75;21089;-77
2021/05/25 01:27:38;;;;;;;3.08;1.87;;;12.90;99.90;;;;;;1883992;75;21046;-77
2021/05/25 01:30:09;;;;;;;4.45;1.65;;;12.50;99.90;;;;;;1883688;75;21113;-77
2021/05/25 01:32:37;;;;;;;6.25;1.75;;;12.50;99.90;;;;;;1880797;75;21167;-76
2021/05/25 01:35:05;;;;;;;3.37;1.90;;;12.40;99.90;;;;;;1880111;75;21133;-78
2021/05/25 01:37:32;;;;;;;5.55;1.60;;;12.40;99.90;;;;;;1875965;75;21069;-77
2021/05/25 01:40:00;;;;;;;4.78;1.87;;;12.40;99.90;;;;;;1882866;75;21073;-76
2021/05/25 01:42:36;;;;;;;4.03;1.52;;;12.40;99.90;;;;;;1881271;75;21105;-78
2021/05/25 01:45:06;;;;;;;3.95;1.92;;;12.20;99.90;;;;;;1880358;75;21058;-77
2021/05/25 01:47:33;;;;;;;3.30;1.67;;;12.30;99.90;;;;;;1880765;75;21089;-78
2021/05/25 01:50:14;;;;;;;2.90;1.82;;;12.30;99.90;;;;;;1883652;75;21129;-77
2021/05/25 01:52:59;;;;;;;2.00;1.40;;;12.30;99.90;;;;;;1880801;75;21662;-77
2021/05/25 01:55:35;;;;;;;2.40;1.60;;;12.40;99.90;;;;;;1881904;75;21196;-79
2021/05/25 01:58:05;;;;;;;2.00;1.37;;;12.30;99.90;;;;;;1883761;75;21159;-79
2021/05/25 02:00:35;;;;;;;3.30;1.62;;;12.20;99.90;;;;;;1862911;75;21096;-75
2021/05/25 02:03:04;;;;;;;3.37;1.45;;;12.10;99.90;;;;;;1882210;75;21579;-76
2021/05/25 02:05:32;;;;;;;3.20;1.40;;;12.00;99.90;;;;;;1880027;75;21175;-77
2021/05/25 02:08:00;;;;;;;2.12;1.25;;;12.00;99.90;;;;;;1880603;75;21167;-76
2021/05/25 02:10:42;;;;;;;3.83;1.50;;;12.10;99.90;;;;;;1886723;75;21117;-79
2021/05/25 02:13:18;;;;;;;2.85;1.40;;;12.20;99.90;;;;;;1883018;75;21319;-79
2021/05/25 02:15:49;;;;;;;2.65;1.50;;;12.30;99.90;;;;;;1880233;75;21125;-80
2021/05/25 02:18:19;;;;;;;1.90;1.20;;;12.30;99.90;;;;;;1881956;75;21228;-78
2021/05/25 02:20:49;;;;;;;2.30;1.37;;;12.40;99.90;;;;;;1883912;75;21128;-79
2021/05/25 02:23:17;;;;;;;3.80;1.32;;;12.40;99.90;;;;;;1882992;75;21172;-79
2021/05/25 02:25:45;;;;;;;2.27;1.55;;;12.40;99.90;;;;;;1882361;75;21572;-78
2021/05/25 02:28:14;;;;;;;2.52;1.40;;;12.60;99.90;;;;;;1882649;75;21523;-78
2021/05/25 02:30:42;;;;;;;2.67;1.50;;;12.60;99.90;;;;;;1883147;75;21066;-77
2021/05/25 02:33:12;;;;;;;2.15;1.70;;;12.50;99.90;;;;;;1880863;75;21082;-78
2021/05/25 02:35:42;;;;;;;6.28;1.50;;;12.50;99.90;;;;;;1883821;75;21078;-78
2021/05/25 02:38:12;;;;;;;3.90;1.90;;;12.60;99.90;;;;;;1877188;75;21129;-79
2021/05/25 02:40:40;;;;;;;3.95;1.80;;;12.40;99.90;;;;;;1881598;75;21089;-80
2021/05/25 02:43:08;;;;;;;1.95;1.70;;;12.40;99.90;;;;;;1881901;75;21214;-78
2021/05/25 02:45:36;;;;;;;3.08;1.85;;;12.40;99.90;;;;;;1881552;75;21122;-78
2021/05/25 02:48:04;;;;;;;3.15;1.95;;;12.40;99.90;;;;;;1884729;75;21171;-77
2021/05/25 02:50:33;;;;;;;2.00;1.80;;;12.50;99.90;;;;;;1883775;75;21094;-77
2021/05/25 02:53:00;;;;;;;2.50;1.80;;;12.30;99.90;;;;;;1883183;75;21613;-77
2021/05/25 02:55:30;;;;;;;3.00;2.10;;;12.00;99.90;;;;;;1885721;75;22146;-76
2021/05/25 02:57:59;;;;;;;3.10;2.17;;;11.80;99.90;;;;;;1882632;75;21043;-78
2021/05/25 03:00:30;;;;;;;3.58;1.80;;;12.10;99.90;;;;;;1883587;75;21084;-78
2021/05/25 03:02:58;;;;;;;4.70;2.22;;;12.10;99.90;;;;;;1884501;75;21143;-80
2021/05/25 03:05:26;;;;;;;4.35;2.17;;;11.90;99.90;;;;;;1886361;75;21038;-78
2021/05/25 03:07:57;;;;;;;3.65;2.22;;;11.80;99.90;;;;;;1885034;75;21030;-80
2021/05/25 03:10:27;;;;;;;3.70;2.17;;;12.00;99.90;;;;;;1885604;75;21113;-78
2021/05/25 03:12:55;;;;;;;3.40;2.33;;;11.80;99.90;;;;;;1884866;75;21051;-79
2021/05/25 03:15:25;;;;;;;3.33;2.10;;;11.80;99.90;;;;;;1881838;75;21547;-78
2021/05/25 03:17:53;;;;;;;4.20;2.30;;;11.70;99.90;;;;;;1879877;75;21074;-77
2021/05/25 03:20:21;;;;;;;4.70;2.37;;;11.60;99.90;;;;;;1880806;75;21143;-79
2021/05/25 03:22:49;;;;;;;3.58;2.50;;;11.70;99.90;;;;;;1881572;75;21211;-78
2021/05/25 03:25:17;;;;;;;6.90;2.58;;;11.90;99.90;;;;;;1885232;75;21089;-78
2021/05/25 03:27:45;;;;;;;3.45;2.55;;;11.90;99.90;;;;;;1879278;75;21100;-79
2021/05/25 03:30:15;;;;;;;5.20;2.58;;;11.90;99.90;;;;;;1882419;75;21717;-80
2021/05/25 03:32:43;;;;;;;2.92;2.25;;;11.90;99.90;;;;;;1883523;75;21117;-78
2021/05/25 03:35:12;;;;;;;4.42;2.83;;;11.90;99.90;;;;;;1886809;75;21059;-79
2021/05/25 03:37:40;;;;;;;3.35;2.62;;;11.60;99.90;;;;;;1885500;75;21057;-78
2021/05/25 03:40:10;;;;;;;4.67;2.75;;;11.60;99.90;;;;;;1880891;75;21535;-79
2021/05/25 03:42:38;;;;;;;5.12;3.15;;;11.60;99.90;;;;;;1884933;75;21196;-78
2021/05/25 03:45:07;;;;;;;3.35;2.60;;;11.30;99.90;;;;;;1882628;75;21516;-76
2021/05/25 03:47:34;;;;;;;7.80;2.98;;;11.40;99.90;;;;;;1883414;75;21109;-76
2021/05/25 03:50:08;;;;;;;3.58;2.80;;;11.30;99.90;;;;;;1882496;75;21023;-78
2021/05/25 03:52:41;;;;;;;5.25;2.62;;;11.30;99.90;;;;;;1882651;75;21613;-79
2021/05/25 03:55:24;;;;;;;4.90;3.20;;;11.30;99.90;;;;;;1880506;75;21542;-79
2021/05/25 04:00:15;;;;;;;4.22;2.77;;;11.20;99.90;;;;;;1882467;75;21583;-78
2021/05/25 04:02:42;;;;;;;5.70;2.90;;;11.30;99.90;;;;;;1883565;75;21176;-76
2021/05/25 04:05:10;;;;;;;3.70;2.45;;;11.40;99.90;;;;;;1881688;75;21093;-76
2021/05/25 04:07:38;;;;;;;5.08;3.00;;;11.30;99.90;;;;;;1885349;75;21183;-76
2021/05/25 04:10:05;;;;;;;4.35;3.00;;;11.10;99.90;;;;;;1883539;75;21069;-77
2021/05/25 04:12:33;;;;;;;6.62;3.02;;;11.20;99.90;;;;;;1879404;75;21125;-77
2021/05/25 04:15:00;;;;;;;4.10;2.87;;;11.20;99.90;;;;;;1881502;75;21097;-76
2021/05/25 04:17:28;;;;;;;5.40;2.80;;;11.30;99.90;;;;;;1885501;74;21219;-76
2021/05/25 04:19:55;;;;;;;9.13;3.25;;;11.50;99.90;;;;;;1879863;75;21097;-78
2021/05/25 04:22:23;;;;;;;6.87;3.42;;;11.40;99.90;;;;;;1884690;75;21572;-76
2021/05/25 04:24:50;;;;;;;6.20;3.60;;;11.40;99.90;;;;;;1883111;75;21632;-78
2021/05/25 04:27:18;;;;;;;5.25;3.55;;;11.50;99.90;;;;;;1884305;75;21195;-79
2021/05/25 04:29:45;;;;;;;4.87;3.62;;;11.50;99.90;;;;;;1882438;75;21124;-78
2021/05/25 04:32:13;;;;;;;6.47;3.80;;;11.60;99.90;;;;;;1880812;75;21128;-79
2021/05/25 04:34:40;;;;;;;6.47;4.05;;;11.70;99.90;;;;;;1879564;75;21595;-77
2021/05/25 04:37:08;;;;;;;5.90;4.12;;;11.50;99.90;;;;;;1881180;75;21128;-78
2021/05/25 04:39:35;;;;;;;5.62;4.03;;;11.50;99.90;;;;;;1886469;75;21115;-77
2021/05/25 04:42:03;;;;;;;6.37;4.10;;;11.40;99.90;;;;;;1884277;75;21520;-77
2021/05/25 04:44:30;;;;;;;8.10;4.58;;;11.40;99.90;;;;;;1881819;75;21176;-77
2021/05/25 04:46:58;;;;;;;5.17;4.45;;;11.60;99.90;;;;;;1884096;75;21492;-76
2021/05/25 04:49:26;;;;;;;5.87;4.83;;;11.70;99.90;;;;;;1883998;75;21109;-76
2021/05/25 04:51:53;;;;;;;6.55;5.28;;;11.70;99.90;;;;;;1885036;75;21203;-77
2021/05/25 04:54:21;;;;;;;6.65;5.20;;;11.70;99.90;;;;;;1881815;75;21125;-78
2021/05/25 04:56:48;;;;;;;6.72;5.33;;;11.40;99.90;;;;;;1875390;75;21558;-77
2021/05/25 04:59:16;;;;;;;8.18;5.95;;;11.40;99.90;;;;;;1884519;75;21085;-78
2021/05/25 05:01:43;;;;;;;9.05;7.08;;;11.40;99.90;;;;;;1884809;75;21094;-77
2021/05/25 05:04:11;;;;;;;8.78;6.33;;;11.20;99.90;;;;;;1883776;75;21106;-77
2021/05/25 05:06:38;;;;;;;8.88;6.90;;;11.10;99.90;;;;;;1883664;75;21173;-77
2021/05/25 05:09:06;;;;;;;8.45;6.95;;;11.10;99.90;;;;;;1879389;75;21105;-77
2021/05/25 05:11:33;;;;;;;8.93;7.05;;;11.00;99.90;;;;;;1883768;75;21085;-78
2021/05/25 05:14:01;;;;;;;10.58;7.37;;;11.10;99.90;;;;;;1902603;71;21103;-77
2021/05/25 05:16:29;;;;;;;13.10;7.12;;;11.20;99.90;;;;;;1918505;73;21147;-77
2021/05/25 05:18:56;;;;;;;9.58;6.92;;;11.20;99.90;;;;;;1914099;73;21075;-77
2021/05/25 05:21:23;;;;;;;8.70;6.67;;;11.20;99.90;;;;;;1909968;73;21092;-77
2021/05/25 05:23:51;;;;;;;10.00;6.75;;;11.20;99.90;;;;;;1931279;72;21073;-77
2021/05/25 05:26:19;;;;;;;7.85;6.35;;;11.40;99.90;;;;;;1957732;72;21082;-77
2021/05/25 05:28:46;;;;;;;10.35;6.70;;;11.50;99.90;;;;;;1954188;72;21163;-77
2021/05/25 05:31:14;;;;;;;10.35;6.75;;;11.40;99.90;;;;;;1953876;72;21119;-77
2021/05/25 05:33:42;;;;;;;8.63;6.95;;;11.30;99.90;;;;;;1955021;72;21744;-77
2021/05/25 05:36:10;;;;;;;10.10;6.72;;;11.40;99.90;;;;;;1959543;72;21042;-77
2021/05/25 05:38:38;;;;;;;9.33;6.62;;;11.30;99.90;;;;;;1949387;72;21739;-77
2021/05/25 05:41:07;;;;;;;14.23;7.20;;;11.10;99.90;;;;;;1951437;72;21706;-77
2021/05/25 05:43:35;;;;;;;9.85;6.90;;;11.10;99.90;;;;;;1958442;72;21102;-77
2021/05/25 05:46:02;;;;;;;7.10;6.30;;;11.00;99.90;;;;;;1950143;72;21105;-77
2021/05/25 05:48:30;;;;;;;7.87;5.92;;;11.20;99.90;;;;;;1955997;72;21104;-76
2021/05/25 05:50:58;;;;;;;6.37;5.75;;;11.30;99.90;;;;;;1952882;72;21164;-76
2021/05/25 05:53:26;;;;;;;7.53;5.83;;;11.30;99.90;;;;;;1952724;72;21109;-76
2021/05/25 05:55:53;;;;;;;6.45;5.20;;;11.50;99.90;;;;;;1951362;72;21530;-75
2021/05/25 05:58:21;;;;;;;8.25;5.20;;;11.40;99.90;;;;;;1958902;72;21182;-76
2021/05/25 06:00:48;;;;;;;7.97;5.90;;;11.20;99.90;;;;;;1955267;72;21065;-76
2021/05/25 06:03:16;;;;;;;8.08;5.92;;;11.00;99.90;;;;;;1948934;72;21689;-75
2021/05/25 06:05:43;;;;;;;5.95;5.17;;;11.20;99.90;;;;;;1959675;72;21073;-76
2021/05/25 06:08:13;;;;;;;7.62;5.47;;;11.30;99.90;;;;;;1962741;72;21070;-76
2021/05/25 06:10:43;;;;;;;9.00;5.37;;;11.40;99.90;;;;;;1956978;72;21050;-76
2021/05/25 06:13:09;;;;;;;8.83;5.60;;;11.20;99.90;;;;;;1963304;72;21449;-76
2021/05/25 06:15:38;;;;;;;7.50;5.58;;;11.10;99.90;;;;;;1957203;72;21137;-76
2021/05/25 06:18:05;;;;;;;10.20;5.70;;;11.30;99.90;;;;;;1957895;72;21081;-75
2021/05/25 06:20:33;;;;;;;6.05;5.12;;;11.30;99.90;;;;;;1955968;72;21202;-75
2021/05/25 06:23:00;;;;;;;9.78;5.35;;;11.30;99.90;;;;;;1956556;72;21093;-76
2021/05/25 06:25:28;;;;;;;6.75;4.80;;;11.20;99.90;;;;;;1951539;72;21202;-76
2021/05/25 06:27:56;;;;;;;7.58;5.47;;;11.30;99.90;;;;;;1953549;72;21120;-75
2021/05/25 06:30:24;;;;;;;12.03;5.90;;;11.40;99.90;;;;;;1956063;72;21078;-75
2021/05/25 06:32:51;;;;;;;10.40;6.47;;;11.40;99.90;;;;;;1957599;72;21632;-76
2021/05/25 06:35:19;;;;;;;7.80;6.45;;;11.30;99.90;;;;;;1957943;72;21644;-76
2021/05/25 06:37:47;;;;;;;7.53;6.37;;;11.20;99.90;;;;;;1954768;72;21789;-77
2021/05/25 06:40:15;;;;;;;8.13;6.00;;;11.30;99.90;;;;;;1957910;72;21719;-77
2021/05/25 06:42:43;;;;;;;10.50;6.37;;;11.20;99.90;;;;;;1954730;72;21105;-77
2021/05/25 06:45:11;;;;;;;11.75;7.20;;;11.30;99.90;;;;;;1957097;72;21038;-77
2021/05/25 06:47:39;;;;;;;10.63;7.35;;;11.10;99.90;;;;;;1953858;72;21467;-77
2021/05/25 06:50:08;;;;;;;8.95;7.05;;;11.30;99.90;;;;;;1955430;72;21468;-78
2021/05/25 06:52:55;;;;;;;8.70;7.37;;;11.40;99.90;;;;;;1959504;72;21195;-78
2021/05/25 06:55:22;;;;;;;12.55;8.25;;;11.50;99.90;;;;;;1872732;75;21023;-77
2021/05/25 06:57:50;;;;;;;10.72;7.83;;;11.70;99.90;;;;;;1874528;76;21618;-77
2021/05/25 07:00:18;;;;;;;11.45;7.78;;;11.60;99.90;;;;;;1870557;75;21101;-77
2021/05/25 07:02:46;;;;;;;12.00;8.23;;;11.70;99.90;;;;;;1871950;75;21143;-78
2021/05/25 07:05:13;;;;;;;16.45;8.98;;;11.50;99.90;;;;;;1844477;76;21160;-77
2021/05/25 07:07:41;;;;;;;11.50;7.60;;;11.60;99.90;;;;;;1845943;76;21105;-77
2021/05/25 07:10:09;;;;;;;10.85;7.70;;;11.80;99.90;;;;;;1847570;76;21043;-77
2021/05/25 07:12:37;;;;;;;11.60;7.72;;;11.80;99.90;;;;;;1844241;76;21404;-77
2021/05/25 07:15:06;;;;;;;12.63;7.65;;;11.90;99.90;;;;;;1846449;75;21136;-77
2021/05/25 07:17:34;;;;;;;9.00;7.10;;;12.00;99.90;;;;;;1846328;76;21141;-77
2021/05/25 07:20:01;;;;;;;14.55;7.20;;;12.10;99.90;;;;;;1844133;76;21153;-77
2021/05/25 07:22:29;;;;;;;16.93;7.80;;;12.00;99.90;;;;;;1845461;76;21115;-77
2021/05/25 07:24:56;;;;;;;13.32;7.25;;;11.90;99.90;;;;;;1843124;76;21086;-77
2021/05/25 07:27:24;;;;;;;13.30;6.78;;;12.00;99.90;;;;;;1847694;76;21072;-77
2021/05/25 07:29:52;;;;;;;10.65;5.75;;;11.90;99.90;;;;;;1845772;76;21309;-78
2021/05/25 07:32:19;;;;;;;10.75;6.42;;;11.90;99.90;;;;;;1852518;76;21541;-76
2021/05/25 07:34:46;;;;;;;9.08;5.58;;;11.80;99.90;;;;;;1846507;76;21185;-78
2021/05/25 07:37:14;;;;;;;10.75;4.85;;;12.10;99.90;;;;;;1852204;76;21167;-78
2021/05/25 07:39:42;;;;;;;7.72;4.83;;;12.00;99.90;;;;;;1844027;76;21151;-79
2021/05/25 07:42:10;;;;;;;8.93;4.10;;;12.00;99.90;;;;;;1846467;76;21167;-78
2021/05/25 07:44:37;;;;;;;10.48;4.25;;;12.10;99.90;;;;;;1851884;76;21192;-78
2021/05/25 07:47:05;;;;;;;8.45;4.28;;;12.40;99.90;;;;;;1846943;76;21079;-78
2021/05/25 07:49:34;;;;;;;8.70;4.03;;;12.60;99.90;;;;;;1851583;76;21083;-78
2021/05/25 07:52:02;;;;;;;5.12;2.98;;;12.60;99.90;;;;;;1848984;76;21190;-78
2021/05/25 07:54:30;;;;;;;7.35;3.37;;;12.80;99.90;;;;;;1848546;76;21052;-79
2021/05/25 07:56:57;;;;;;;9.00;3.92;;;12.70;99.90;;;;;;1848422;76;21009;-79
2021/05/25 07:59:25;;;;;;;9.80;3.55;;;12.40;99.90;;;;;;1848396;76;21071;-79
2021/05/25 08:01:53;;;;;;;9.83;3.08;;;12.40;99.90;;;;;;1847973;75;21469;-79
2021/05/25 08:04:21;;;;;;;7.92;3.33;;;12.30;99.90;;;;;;1846890;75;21110;-79
2021/05/25 08:06:49;;;;;;;7.35;3.33;;;12.20;99.90;;;;;;1847397;76;21618;-78
2021/05/25 08:09:16;;;;;;;9.58;3.30;;;12.20;99.90;;;;;;1847292;76;21028;-77
2021/05/25 08:11:44;;;;;;;9.95;3.20;;;12.40;99.90;;;;;;1850811;76;21076;-76
2021/05/25 08:14:12;;;;;;;9.10;2.90;;;12.30;99.90;;;;;;1844156;76;21095;-77
2021/05/25 08:16:42;;;;;;;13.98;3.42;;;12.30;99.90;;;;;;1849814;76;21204;-77
2021/05/25 08:19:28;;;;;;;13.05;3.62;;;12.00;99.90;;;;;;1857443;76;21586;-77
2021/05/25 08:21:41;;;;;;;13.20;4.28;;;12.10;99.90;;;;;;1834085;75;21553;-77
2021/05/25 08:24:09;;;;;;;9.95;3.00;;;12.00;99.90;;;;;;1846990;76;21110;-77
2021/05/25 08:26:38;;;;;;;10.85;3.37;;;12.00;99.90;;;;;;1846633;76;21080;-76
2021/05/25 08:29:06;;;;;;;9.03;2.92;;;11.90;99.90;;;;;;1852618;76;21151;-77
2021/05/25 08:31:33;;;;;;;10.18;3.05;;;12.00;99.90;;;;;;1845161;76;21012;-77
2021/05/25 08:34:02;;;;;;;13.10;3.10;;;12.20;99.90;;;;;;1849497;76;21083;-76
2021/05/25 08:36:35;;;;;;;10.58;2.85;;;12.30;99.90;;;;;;1848749;76;21111;-74
2021/05/25 08:39:03;;;;;;;7.28;2.40;;;12.60;99.90;;;;;;1851924;76;21146;-77
2021/05/25 08:41:33;;;;;;;10.05;2.42;;;12.80;99.90;;;;;;1845218;76;21161;-79
2021/05/25 08:44:00;;;;;;;8.70;2.37;;;13.10;99.90;;;;;;1849381;76;21110;-76
2021/05/25 08:46:27;;;;;;;9.08;1.87;;;13.10;99.90;;;;;;1846414;76;21113;-77
2021/05/25 08:48:57;;;;;;;12.45;2.50;;;12.80;99.90;;;;;;1854846;76;21157;-78
2021/05/25 08:51:24;;;;;;;7.15;2.08;;;12.60;99.90;;;;;;1843081;76;21521;-81
2021/05/25 08:53:52;;;;;;;7.62;1.70;;;12.70;99.90;;;;;;1847929;76;21108;-78
2021/05/25 08:56:20;;;;;;;8.05;1.80;;;12.80;99.90;;;;;;1844244;76;21072;-78
2021/05/25 08:58:47;;;;;;;8.28;1.87;;;12.80;99.90;;;;;;1849859;75;21121;-77
2021/05/25 09:01:15;;;;;;;9.48;1.95;;;12.90;99.90;;;;;;1851614;75;21075;-79
2021/05/25 09:04:04;;;;;;;9.35;2.33;;;12.90;99.90;;;;;;1851213;76;21181;-78
2021/05/25 09:06:46;;;;;;;7.37;2.05;;;13.00;99.90;;;;;;1847321;76;21115;-78
2021/05/25 09:09:16;;;;;;;7.92;1.90;;;13.10;99.90;;;;;;1846833;76;21147;-78
2021/05/25 09:12:05;;;;;;;10.08;1.77;;;13.10;99.90;;;;;;1846209;76;21093;-77
2021/05/25 09:14:29;;;;;;;9.78;2.00;;;13.10;99.90;;;;;;1848255;76;21119;-79
2021/05/25 09:17:15;;;;;;;5.78;1.52;;;12.90;99.90;;;;;;1845610;75;21102;-79
2021/05/25 09:19:54;;;;;;;10.32;2.15;;;13.30;99.90;;;;;;1844664;76;21087;-79
2021/05/25 09:22:40;;;;;;;12.73;2.33;;;13.20;99.90;;;;;;1847807;76;21095;-77
2021/05/25 09:25:20;;;;;;;6.78;2.05;;;13.20;99.90;;;;;;1851979;76;21081;-78
2021/05/25 09:28:10;;;;;;;8.83;2.27;;;13.30;99.90;;;;;;1845144;76;21056;-77
2021/05/25 09:30:34;;;;;;;9.13;1.87;;;13.10;99.90;;;;;;1840142;76;21078;-79
2021/05/25 09:33:05;;;;;;;7.85;1.70;;;13.00;99.90;;;;;;1847575;76;21613;-78
2021/05/25 09:35:45;;;;;;;7.00;1.52;;;13.00;99.90;;;;;;1851392;76;21525;-77
2021/05/25 09:38:14;;;;;;;6.90;1.80;;;13.10;99.90;;;;;;1839837;76;21235;-78
2021/05/25 09:40:50;;;;;;;4.20;1.50;;;13.40;99.90;;;;;;1849225;75;21230;-78
2021/05/25 09:43:23;;;;;;;5.58;1.45;;;13.30;99.90;;;;;;1845214;76;21064;-78
2021/05/25 09:46:10;;;;;;;7.30;1.95;;;13.50;99.90;;;;;;1844304;75;21238;-78
2021/05/25 09:48:46;;;;;;;5.33;1.80;;;13.70;99.90;;;;;;1844580;75;21754;-79
2021/05/25 09:51:22;;;;;;;9.55;2.00;;;13.70;99.90;;;;;;1845071;75;21675;-78
2021/05/25 09:53:52;;;;;;;4.30;1.72;;;13.80;99.90;;;;;;1836296;75;21242;-79
2021/05/25 09:56:23;;;;;;;6.53;2.00;;;13.70;99.90;;;;;;1846192;75;21116;-79
2021/05/25 09:58:51;;;;;;;3.58;1.60;;;13.90;99.90;;;;;;1846229;75;21677;-78
2021/05/25 10:01:19;;;;;;;7.33;1.80;;;14.00;99.90;;;;;;1845003;75;21190;-78
2021/05/25 10:03:50;;;;;;;4.65;1.60;;;14.30;99.90;;;;;;1843201;75;21188;-77
2021/05/25 10:06:18;;;;;;;6.55;1.40;;;14.40;99.90;;;;;;1845332;76;21132;-78
2021/05/25 10:08:48;;;;;;;9.10;1.70;;;14.50;99.90;;;;;;1846614;75;21724;-79
2021/05/25 10:11:19;;;;;;;6.12;1.40;;;14.50;99.90;;;;;;1844945;76;21704;-79
2021/05/25 10:13:47;;;;;;;3.30;1.47;;;14.50;99.90;;;;;;1849027;76;21114;-78
2021/05/25 10:16:16;;;;;;;5.05;1.75;;;14.50;99.90;;;;;;1844741;75;21632;-80
2021/05/25 10:21:15;;;;;;;4.22;1.65;;;14.60;99.90;;;;;;1843844;75;21122;-81
2021/05/25 10:23:43;;;;;;;4.75;1.40;;;14.60;99.90;;;;;;1845422;75;21147;-79
2021/05/25 10:26:17;;;;;;;4.78;1.70;;;14.60;99.90;;;;;;1845870;76;21079;-80
2021/05/25 10:28:50;;;;;;;4.58;2.08;;;14.60;99.90;;;;;;1846247;75;21092;-80
2021/05/25 10:31:38;;;;;;;8.85;1.50;;;14.40;99.90;;;;;;1845491;75;21095;-81
2021/05/25 10:34:23;;;;;;;4.78;1.65;;;14.30;99.90;;;;;;1846733;75;21254;-80
2021/05/25 10:36:55;;;;;;;5.92;1.55;;;14.10;99.90;;;;;;1847105;75;21664;-80
2021/05/25 10:39:34;;;;;;;;;;;13.90;99.90;;;;;;1847916;75;21141;-81
2021/05/25 10:42:27;;;;;;;3.62;1.50;;;13.90;99.90;;;;;;1845957;75;20224;-81
2021/05/25 10:44:57;;;;;;;4.80;1.65;;;14.00;99.90;;;;;;1844343;76;21971;-80
2021/05/25 10:47:34;;;;;;;4.22;1.45;;;14.10;99.90;;;;;;1845950;75;21654;-81
2021/05/25 10:50:26;;;;;;;7.20;1.67;;;14.10;99.90;;;;;;1848755;76;21187;-81
2021/05/25 10:52:59;;;;;;;2.95;1.50;;;14.40;99.90;;;;;;1848066;75;21072;-81
2021/05/25 10:55:30;;;;;;;4.80;1.57;;;14.80;99.90;;;;;;1846401;75;21143;-80
2021/05/25 10:57:58;;;;;;;4.67;1.87;;;14.90;99.90;;;;;;1848017;75;21692;-80
2021/05/25 11:00:35;;;;;;;7.00;1.52;;;15.00;99.90;;;;;;1848785;75;21095;-76
2021/05/25 11:03:14;;;;;;;6.17;1.75;;;15.00;99.90;;;;;;1850584;75;21562;-78
2021/05/25 11:05:50;;;;;;;5.20;1.60;;;14.70;99.90;;;;;;1846088;76;21657;-78
2021/05/25 11:08:21;;;;;;;5.00;1.42;;;14.90;99.90;;;;;;1846206;76;21313;-79
2021/05/25 11:10:57;;;;;;;3.58;1.30;;;14.70;99.90;;;;;;1852869;75;21355;-79
2021/05/25 11:13:27;;;;;;;5.97;1.40;;;14.70;99.90;;;;;;1853203;71;21541;-77
2021/05/25 11:16:08;;;;;;;3.85;1.42;;;14.70;99.90;;;;;;1823837;77;21173;-77
2021/05/25 11:18:45;;;;;;;3.80;1.45;;;14.90;99.90;;;;;;1824302;77;21136;-76
2021/05/25 11:23:44;;;;;;;3.92;1.67;;;15.00;99.90;;;;;;1835392;75;20173;-75
2021/05/25 11:26:14;;;;;;;8.05;2.27;;;15.10;99.90;;;;;;1862228;77;21578;-77
2021/05/25 11:29:20;;;;;;;4.35;1.90;;;15.40;99.90;;;;;;1835024;77;21190;-77
2021/05/25 11:31:47;;;;;;;5.37;1.95;;;15.60;99.90;;;;;;1860205;77;22208;-77
2021/05/25 11:34:16;;;;;;;5.65;1.72;;;15.60;99.90;;;;;;1862912;77;21137;-78
2021/05/25 11:36:43;;;;;;;6.95;2.00;;;15.40;99.90;;;;;;1863165;75;21942;-77
2021/05/25 11:39:12;;;;;;;4.55;1.98;;;15.40;99.90;;;;;;1859674;77;21105;-79
2021/05/25 11:41:39;;;;;;;3.02;1.40;;;15.30;99.90;;;;;;1861863;77;21097;-78
2021/05/25 11:44:10;;;;;;;10.38;2.00;;;15.10;99.90;;;;;;1863376;77;21085;-77
2021/05/25 11:46:51;;;;;;;8.55;1.82;;;14.80;99.90;;;;;;1863415;75;21053;-78
2021/05/25 11:49:20;;;;;;;5.92;2.17;;;14.80;99.90;;;;;;1863402;75;21041;-77
2021/05/25 11:51:48;;;;;;;2.85;1.80;;;15.10;99.90;;;;;;1864807;75;21167;-77
2021/05/25 11:54:21;;;;;;;2.95;2.00;;;15.00;99.90;;;;;;1863770;75;21101;-78
2021/05/25 11:56:51;;;;;;;5.50;2.37;;;15.00;99.90;;;;;;1863214;75;21101;-78
2021/05/25 11:59:21;;;;;;;5.65;2.25;;;14.90;99.90;;;;;;1862897;75;21199;-78
2021/05/25 12:01:50;;;;;;;6.17;2.20;;;14.50;99.90;;;;;;1863847;77;21113;-79
2021/05/25 12:04:20;;;;;;;8.18;1.87;;;14.70;99.90;;;;;;1863003;77;21141;-79
2021/05/25 12:06:54;;;;;;;8.73;1.98;;;15.30;99.90;;;;;;1862859;75;21170;-77
2021/05/25 12:09:27;;;;;;;5.97;2.05;;;15.70;99.90;;;;;;1860642;75;21168;-75
2021/05/25 12:12:08;;;;;;;7.20;2.30;;;15.70;99.90;;;;;;1863429;75;21579;-76
2021/05/25 12:14:32;;;;;;;7.92;2.02;;;15.50;99.90;;;;;;1860532;75;21159;-75
2021/05/25 12:17:03;;;;;;;7.12;2.00;;;15.30;99.90;;;;;;1864449;75;21117;-75
2021/05/25 12:19:31;;;;;;;5.87;1.75;;;15.30;99.90;;;;;;1866120;75;21096;-75
2021/05/25 12:22:06;;;;;;;5.65;1.50;;;15.10;99.90;;;;;;1868187;75;21130;-73
2021/05/25 12:24:39;;;;;;;3.80;1.37;;;14.70;99.90;;;;;;1863933;75;21121;-75
2021/05/25 12:27:03;;;;;;;3.98;1.85;;;14.60;99.90;;;;;;1861744;75;21216;-74
2021/05/25 12:29:31;;;;;;;5.22;2.00;;;14.30;99.90;;;;;;1858954;75;21087;-74
2021/05/25 12:31:59;;;;;;;5.40;2.27;;;14.40;99.90;;;;;;1862620;75;21092;-75
2021/05/25 12:34:26;;;;;;;8.00;2.37;;;14.30;99.90;;;;;;1863205;75;21124;-75
2021/05/25 12:36:58;;;;;;;4.83;2.20;;;14.30;99.90;;;;;;1864400;75;21170;-72
2021/05/25 12:39:37;;;;;;;3.55;2.00;;;14.30;99.90;;;;;;1862813;75;21164;-75
2021/05/25 12:42:18;;;;;;;4.05;2.00;;;13.90;99.90;;;;;;1859381;75;21615;-76
2021/05/25 12:44:45;;;;;;;;;;;14.10;99.90;;;;;;1866847;75;21246;-75
2021/05/25 12:47:15;;;;;;;5.28;2.25;;;14.30;99.90;;;;;;1864117;75;20463;-76
2021/05/25 12:49:51;;;;;;;5.47;2.20;;;14.70;99.90;;;;;;1860416;75;21227;-75
2021/05/25 12:52:24;;;;;;;6.47;2.17;;;14.90;99.90;;;;;;1859380;75;21098;-75
2021/05/25 12:55:01;;;;;;;5.40;1.80;;;15.00;99.90;;;;;;1860216;75;21180;-75
2021/05/25 12:57:48;;;;;;;3.52;1.57;;;15.20;99.90;;;;;;1861148;75;21633;-73
2021/05/25 13:00:29;;;;;;;2.62;1.10;;;15.30;99.90;;;;;;1864287;75;21136;-74
2021/05/25 13:02:58;;;;;;;3.30;1.30;;;15.20;99.90;;;;;;1865310;75;21037;-74
2021/05/25 13:05:31;;;;;;;3.05;1.22;;;15.10;99.90;;;;;;1863697;77;21163;-75
2021/05/25 13:08:03;;;;;;;2.62;1.25;;;15.00;99.90;;;;;;1862165;76;21112;-75